Lake County Unofficial Weather Historical Data
 
Daily Summary for January 21, 2018 Units:  English    Metric   Both
« Previous Day
Next Day »
Daily Weekly Monthly Yearly Custom
  Current: High: Low: Average:
Temperature: 38.3 °F 40.1 °F 35.1 °F 36.7 °F
Dew Point: 34.8 °F 36.3 °F 32.2 °F 33.9 °F
Humidity: 87 % 92 % 85 % 90 %
Wind Speed: 0.0 mph 2.3 mph 0.0 mph 0.3 mph
Wind Gust: 0.0 mph 2.3 mph - -
Wind:Calm - - ESE
Pressure: 29.09 in 29.18 in 29.09 in -
Precipitation: 0.00 in      
Historical Graphs
 
 
Tabular Data for January 21, 2018
Time Temperature Dew Point Pressure Wind Wind Speed Wind Gust Humidity Rainfall Rate (Hourly) solar Conditions
00:03 36.0 °F 33.4 °F 29.17 in Calm     90 % 0.00 in 0.0 W/m2 CLR
00:08 35.8 °F 33.2 °F 29.17 in Calm     90 % 0.00 in 0.0 W/m2 CLR
00:18 35.6 °F 33.0 °F 29.17 in Calm     90 % 0.00 in 0.0 W/m2 CLR
00:28 35.6 °F 33.0 °F 29.17 in Calm     90 % 0.00 in 0.0 W/m2 CLR
00:33 35.6 °F 33.0 °F 29.17 in Calm     90 % 0.00 in 0.0 W/m2 CLR
00:38 35.6 °F 33.0 °F 29.17 in Calm     90 % 0.00 in 0.0 W/m2 CLR
00:43 35.4 °F 32.8 °F 29.16 in Calm     90 % 0.00 in 0.0 W/m2 CLR
00:48 35.4 °F 32.8 °F 29.16 in Calm     90 % 0.00 in 0.0 W/m2 CLR
00:53 35.4 °F 32.8 °F 29.16 in Calm     90 % 0.00 in 0.0 W/m2 CLR
00:58 35.6 °F 33.0 °F 29.16 in Calm     90 % 0.00 in 0.0 W/m2 CLR
01:03 35.6 °F 33.0 °F 29.16 in Calm     90 % 0.00 in 0.0 W/m2 CLR
01:08 35.6 °F 33.0 °F 29.16 in Calm     90 % 0.00 in 0.0 W/m2 CLR
01:13 35.6 °F 33.0 °F 29.16 in Calm     90 % 0.00 in 0.0 W/m2 CLR
01:18 35.6 °F 33.0 °F 29.17 in Calm     90 % 0.00 in 0.0 W/m2 CLR
01:28 35.4 °F 32.8 °F 29.17 in Calm     90 % 0.00 in 0.0 W/m2 CLR
01:33 35.4 °F 32.8 °F 29.17 in Calm     90 % 0.00 in 0.0 W/m2 CLR
01:38 35.4 °F 32.8 °F 29.17 in Calm     90 % 0.00 in 0.0 W/m2 CLR
01:43 35.4 °F 32.8 °F 29.18 in Calm     90 % 0.00 in 0.0 W/m2 CLR
01:48 35.4 °F 32.8 °F 29.18 in Calm     90 % 0.00 in 0.0 W/m2 CLR
01:53 35.4 °F 32.8 °F 29.18 in Calm     90 % 0.00 in 0.0 W/m2 CLR
01:58 35.2 °F 32.6 °F 29.18 in Calm     90 % 0.00 in 0.0 W/m2 CLR
02:03 35.2 °F 32.6 °F 29.18 in Calm     90 % 0.00 in 0.0 W/m2 CLR
02:08 35.2 °F 32.6 °F 29.18 in Calm     90 % 0.00 in 0.0 W/m2 CLR
02:13 35.2 °F 32.6 °F 29.18 in Calm     90 % 0.00 in 0.0 W/m2 CLR
02:18 35.2 °F 32.6 °F 29.18 in Calm     90 % 0.00 in 0.0 W/m2 CLR
02:23 35.1 °F 32.5 °F 29.18 in Calm     90 % 0.00 in 0.0 W/m2 CLR
02:28 35.1 °F 32.2 °F 29.18 in Calm     89 % 0.00 in 0.0 W/m2 CLR
02:43 35.2 °F 32.6 °F 29.18 in Calm     90 % 0.00 in 0.0 W/m2 CLR
02:48 35.2 °F 32.6 °F 29.18 in Calm     90 % 0.00 in 0.0 W/m2 CLR
02:58 35.2 °F 32.6 °F 29.17 in Calm     90 % 0.00 in 0.0 W/m2 CLR
03:03 35.2 °F 32.6 °F 29.17 in Calm     90 % 0.00 in 0.0 W/m2 CLR
03:08 35.2 °F 32.6 °F 29.17 in Calm     90 % 0.00 in 0.0 W/m2 CLR
03:13 35.2 °F 32.6 °F 29.17 in Calm     90 % 0.00 in 0.0 W/m2 CLR
03:18 35.2 °F 32.6 °F 29.17 in Calm     90 % 0.00 in 0.0 W/m2 CLR
03:23 35.2 °F 32.6 °F 29.17 in Calm     90 % 0.00 in 0.0 W/m2 CLR
03:28 35.2 °F 32.6 °F 29.16 in Calm     90 % 0.00 in 0.0 W/m2 CLR
03:33 35.2 °F 32.6 °F 29.16 in Calm     90 % 0.00 in 0.0 W/m2 CLR
03:38 35.2 °F 32.6 °F 29.16 in Calm     90 % 0.00 in 0.0 W/m2 CLR
03:43 35.2 °F 32.6 °F 29.16 in Calm     90 % 0.00 in 0.0 W/m2 CLR
03:48 35.2 °F 32.6 °F 29.16 in Calm     90 % 0.00 in 0.0 W/m2 CLR
03:53 35.2 °F 32.6 °F 29.16 in Calm     90 % 0.00 in 0.0 W/m2 CLR
03:58 35.2 °F 32.6 °F 29.16 in Calm     90 % 0.00 in 0.0 W/m2 CLR
04:03 35.2 °F 32.6 °F 29.16 in Calm     90 % 0.00 in 0.0 W/m2 CLR
04:08 35.2 °F 32.6 °F 29.16 in Calm     90 % 0.00 in 0.0 W/m2 CLR
04:13 35.2 °F 32.6 °F 29.16 in Calm     90 % 0.00 in 0.0 W/m2 CLR
04:18 35.2 °F 32.6 °F 29.16 in Calm     90 % 0.00 in 0.0 W/m2 CLR
04:23 35.2 °F 32.6 °F 29.16 in Calm     90 % 0.00 in 0.0 W/m2 CLR
04:28 35.2 °F 32.6 °F 29.16 in Calm     90 % 0.00 in 0.0 W/m2 CLR
04:33 35.2 °F 32.6 °F 29.16 in Calm     90 % 0.00 in 0.0 W/m2 CLR
04:38 35.4 °F 32.8 °F 29.16 in Calm     90 % 0.00 in 0.0 W/m2 CLR
04:43 35.4 °F 32.8 °F 29.15 in Calm     90 % 0.00 in 0.0 W/m2 CLR
04:48 35.4 °F 32.8 °F 29.15 in Calm     90 % 0.00 in 0.0 W/m2 CLR
04:53 35.4 °F 32.8 °F 29.16 in Calm     90 % 0.00 in 0.0 W/m2 CLR
04:58 35.4 °F 32.8 °F 29.16 in Calm     90 % 0.00 in 0.0 W/m2 CLR
05:03 35.4 °F 32.8 °F 29.16 in Calm     90 % 0.00 in 0.0 W/m2 CLR
05:08 35.4 °F 32.8 °F 29.16 in Calm     90 % 0.00 in 0.0 W/m2 CLR
05:13 35.4 °F 32.8 °F 29.16 in Calm     90 % 0.00 in 0.0 W/m2 CLR
05:18 35.4 °F 32.8 °F 29.15 in Calm     90 % 0.00 in 0.0 W/m2 CLR
05:23 35.4 °F 32.8 °F 29.15 in Calm     90 % 0.00 in 0.0 W/m2 CLR
05:28 35.4 °F 32.8 °F 29.15 in Calm     90 % 0.00 in 0.0 W/m2 CLR
05:33 35.4 °F 32.8 °F 29.15 in Calm     90 % 0.00 in 0.0 W/m2 CLR
05:38 35.4 °F 32.8 °F 29.15 in Calm     90 % 0.00 in 0.0 W/m2 CLR
05:43 35.4 °F 32.8 °F 29.14 in Calm     90 % 0.00 in 0.0 W/m2 CLR
05:48 35.4 °F 32.8 °F 29.14 in Calm     90 % 0.00 in 0.0 W/m2 CLR
05:53 35.6 °F 33.2 °F 29.15 in Calm     91 % 0.00 in 0.0 W/m2 CLR
05:58 35.6 °F 33.2 °F 29.15 in Calm     91 % 0.00 in 0.0 W/m2 CLR
06:03 36.0 °F 33.6 °F 29.15 in Calm     91 % 0.00 in 0.0 W/m2 CLR
06:08 36.3 °F 34.2 °F 29.15 in SSE 2.3 mph 2.3 mph 92 % 0.00 in 0.0 W/m2 CLR
06:13 36.1 °F 34.0 °F 29.15 in Calm     92 % 0.00 in 0.0 W/m2 CLR
06:18 36.1 °F 34.0 °F 29.16 in South 1.2 mph   92 % 0.00 in 0.0 W/m2 CLR
06:23 36.1 °F 34.0 °F 29.16 in Calm     92 % 0.00 in 0.0 W/m2 CLR
06:28 36.1 °F 34.0 °F 29.16 in Calm     92 % 0.00 in 0.0 W/m2 CLR
06:33 36.1 °F 34.0 °F 29.16 in Calm     92 % 0.00 in 0.0 W/m2 CLR
06:38 36.0 °F 33.9 °F 29.16 in Calm     92 % 0.00 in 0.0 W/m2 CLR
06:43 36.0 °F 33.9 °F 29.15 in Calm     92 % 0.00 in 0.0 W/m2 CLR
06:48 36.0 °F 33.9 °F 29.15 in Calm     92 % 0.00 in 0.0 W/m2 CLR
06:53 36.0 °F 33.9 °F 29.16 in Calm     92 % 0.00 in 0.0 W/m2 CLR
06:58 36.0 °F 33.9 °F 29.16 in Calm     92 % 0.00 in 0.0 W/m2 CLR
07:03 36.0 °F 33.9 °F 29.15 in Calm     92 % 0.00 in 0.0 W/m2 CLR
07:08 36.0 °F 33.9 °F 29.15 in Calm     92 % 0.00 in 0.0 W/m2 CLR
07:13 36.0 °F 33.9 °F 29.15 in Calm     92 % 0.00 in 0.0 W/m2 CLR
07:18 35.8 °F 33.7 °F 29.15 in Calm     92 % 0.00 in 0.0 W/m2 CLR
07:23 35.8 °F 33.7 °F 29.15 in Calm     92 % 0.00 in 0.0 W/m2 CLR
07:28 35.8 °F 33.7 °F 29.15 in Calm     92 % 0.00 in 0.0 W/m2 CLR
07:33 35.6 °F 33.5 °F 29.15 in Calm     92 % 0.00 in 0.0 W/m2 CLR
07:38 35.6 °F 33.5 °F 29.15 in Calm     92 % 0.00 in 0.0 W/m2 CLR
07:43 35.8 °F 33.7 °F 29.15 in Calm     92 % 0.00 in 0.0 W/m2 CLR
07:48 35.8 °F 33.7 °F 29.15 in Calm     92 % 0.00 in 0.0 W/m2 CLR
07:53 35.8 °F 33.7 °F 29.15 in Calm     92 % 0.00 in 0.0 W/m2 CLR
07:58 35.8 °F 33.7 °F 29.15 in Calm     92 % 0.00 in 0.0 W/m2 CLR
08:03 35.8 °F 33.4 °F 29.15 in Calm     91 % 0.00 in 0.0 W/m2 CLR
08:08 35.8 °F 33.4 °F 29.15 in Calm     91 % 0.00 in 0.0 W/m2 CLR
08:13 35.8 °F 33.4 °F 29.15 in Calm     91 % 0.00 in 0.0 W/m2 CLR
08:18 36.0 °F 33.6 °F 29.16 in Calm     91 % 0.00 in 0.0 W/m2 CLR
08:23 36.0 °F 33.6 °F 29.16 in Calm     91 % 0.00 in 0.0 W/m2 CLR
08:28 36.0 °F 33.6 °F 29.15 in Calm     91 % 0.00 in 0.0 W/m2 CLR
08:33 36.1 °F 33.7 °F 29.15 in Calm     91 % 0.00 in 0.0 W/m2 CLR
08:38 36.3 °F 33.9 °F 29.16 in Calm     91 % 0.00 in 0.0 W/m2 CLR
08:43 36.3 °F 33.9 °F 29.16 in Calm     91 % 0.00 in 0.0 W/m2 CLR
08:48 36.3 °F 33.9 °F 29.16 in Calm     91 % 0.00 in 0.0 W/m2 CLR
08:53 36.5 °F 34.1 °F 29.16 in Calm     91 % 0.00 in 0.0 W/m2 CLR
08:58 36.5 °F 34.1 °F 29.16 in Calm     91 % 0.00 in 0.0 W/m2 CLR
09:03 36.7 °F 34.3 °F 29.16 in Calm     91 % 0.00 in 0.0 W/m2 OVC
09:08 36.9 °F 34.5 °F 29.16 in Calm     91 % 0.00 in 0.0 W/m2 OVC
09:13 36.9 °F 34.2 °F 29.16 in Calm     90 % 0.00 in 0.0 W/m2 OVC
09:18 37.0 °F 34.3 °F 29.17 in Calm     90 % 0.00 in 0.0 W/m2 OVC
09:23 37.2 °F 34.5 °F 29.17 in Calm     90 % 0.00 in 0.0 W/m2 OVC
09:28 37.2 °F 34.5 °F 29.17 in Calm     90 % 0.00 in 0.0 W/m2 OVC
09:33 37.2 °F 34.5 °F 29.17 in Calm     90 % 0.00 in 0.0 W/m2 OVC
09:38 37.4 °F 34.7 °F 29.17 in Calm     90 % 0.00 in 0.0 W/m2 OVC
09:43 37.6 °F 34.9 °F 29.17 in Calm     90 % 0.00 in 0.0 W/m2 OVC
09:48 37.8 °F 35.1 °F 29.17 in ESE 2.3 mph 2.3 mph 90 % 0.00 in 0.0 W/m2 OVC
09:53 37.8 °F 35.1 °F 29.17 in SSE 2.3 mph   90 % 0.00 in 0.0 W/m2 OVC
09:58 37.8 °F 35.1 °F 29.17 in Calm     90 % 0.00 in 0.0 W/m2 OVC
10:03 37.8 °F 35.1 °F 29.17 in SSE 1.2 mph   90 % 0.00 in 0.0 W/m2 OVC
10:08 37.9 °F 35.2 °F 29.17 in Calm     90 % 0.00 in 0.0 W/m2 OVC
10:13 38.1 °F 35.4 °F 29.17 in SSE 2.3 mph 2.3 mph 90 % 0.00 in 0.0 W/m2 OVC
10:18 38.3 °F 35.3 °F 29.17 in Calm     89 % 0.00 in 0.0 W/m2 OVC
10:23 38.3 °F 35.3 °F 29.17 in Calm     89 % 0.00 in 0.0 W/m2 OVC
10:28 38.5 °F 35.5 °F 29.17 in South 1.2 mph 1.2 mph 89 % 0.00 in 0.0 W/m2 OVC
10:33 38.7 °F 35.7 °F 29.17 in Calm     89 % 0.00 in 0.0 W/m2 OVC
10:38 38.7 °F 35.7 °F 29.17 in SSE 2.3 mph   89 % 0.00 in 0.0 W/m2 OVC
10:43 39.0 °F 35.7 °F 29.17 in Calm     88 % 0.00 in 0.0 W/m2 OVC
10:48 39.0 °F 35.7 °F 29.17 in Calm     88 % 0.00 in 0.0 W/m2 OVC
10:53 39.2 °F 35.9 °F 29.16 in Calm     88 % 0.00 in 0.0 W/m2 OVC
10:58 39.4 °F 36.1 °F 29.16 in Calm     88 % 0.00 in 0.0 W/m2 OVC
11:03 39.2 °F 35.7 °F 29.15 in Calm     87 % 0.00 in 0.0 W/m2 OVC
11:08 39.4 °F 35.9 °F 29.15 in Calm     87 % 0.00 in 0.0 W/m2 OVC
11:13 39.4 °F 35.9 °F 29.15 in Calm     87 % 0.00 in 0.0 W/m2 OVC
11:18 39.6 °F 36.0 °F 29.15 in Calm     87 % 0.00 in 0.0 W/m2 OVC
11:23 39.7 °F 36.1 °F 29.15 in NE 1.2 mph 1.2 mph 87 % 0.00 in 0.0 W/m2 OVC
11:28 39.9 °F 36.3 °F 29.14 in Calm     87 % 0.00 in 0.0 W/m2 OVC
11:33 39.9 °F 36.3 °F 29.14 in Calm     87 % 0.00 in 0.0 W/m2 OVC
11:38 40.1 °F 36.2 °F 29.14 in Calm     86 % 0.00 in 0.0 W/m2 OVC
11:43 40.1 °F 36.2 °F 29.13 in Calm     86 % 0.00 in 0.0 W/m2 OVC
11:48 40.1 °F 36.2 °F 29.13 in Calm     86 % 0.00 in 0.0 W/m2 OVC
11:53 40.1 °F 36.2 °F 29.12 in Calm     86 % 0.00 in 0.0 W/m2 OVC
11:58 40.1 °F 36.2 °F 29.12 in ENE 1.2 mph 1.2 mph 86 % 0.00 in 0.0 W/m2 OVC
12:03 39.9 °F 36.1 °F 29.12 in ENE 1.2 mph 1.2 mph 86 % 0.00 in 0.0 W/m2 OVC
12:08 39.7 °F 35.9 °F 29.12 in East 2.2 mph 2.2 mph 86 % 0.00 in 0.0 W/m2 OVC
12:13 39.6 °F 35.5 °F 29.12 in East 1.2 mph 1.2 mph 85 % 0.00 in 0.0 W/m2 OVC
12:18 38.8 °F 34.7 °F 29.11 in East 1.7 mph 1.7 mph 85 % 0.00 in 0.0 W/m2 OVC
12:23 38.5 °F 34.7 °F 29.11 in Calm     86 % 0.00 in 0.0 W/m2 OVC
12:28 38.5 °F 34.7 °F 29.11 in Calm     86 % 0.00 in 0.0 W/m2 OVC
12:33 38.5 °F 34.7 °F 29.11 in Calm     86 % 0.00 in 0.0 W/m2 OVC
12:38 38.3 °F 34.8 °F 29.11 in SE 2.2 mph 2.2 mph 87 % 0.00 in 0.0 W/m2 OVC
12:43 38.1 °F 34.6 °F 29.12 in South 2.3 mph 2.3 mph 87 % 0.00 in 0.0 W/m2 OVC
12:48 37.9 °F 34.7 °F 29.12 in South 1.2 mph   88 % 0.00 in 0.0 W/m2 OVC
12:53 38.3 °F 35.1 °F 29.12 in Calm     88 % 0.00 in 0.0 W/m2 OVC
12:58 38.5 °F 35.0 °F 29.12 in Calm     87 % 0.00 in 0.0 W/m2 OVC
13:03 38.5 °F 35.0 °F 29.11 in Calm     87 % 0.00 in 0.0 W/m2 OVC
13:08 38.5 °F 35.0 °F 29.11 in Calm     87 % 0.00 in 0.0 W/m2 OVC
13:13 38.3 °F 34.8 °F 29.11 in NE 2.3 mph 2.3 mph 87 % 0.00 in 0.0 W/m2 OVC
13:18 38.1 °F 34.6 °F 29.11 in East 1.2 mph   87 % 0.00 in 0.0 W/m2 OVC
13:23 38.3 °F 34.8 °F 29.11 in ESE 1.7 mph 1.7 mph 87 % 0.00 in 0.0 W/m2 OVC
13:28 38.3 °F 34.8 °F 29.10 in Calm     87 % 0.00 in 0.0 W/m2 OVC
13:33 38.1 °F 34.6 °F 29.10 in Calm     87 % 0.00 in 0.0 W/m2 OVC
13:38 38.3 °F 34.8 °F 29.10 in East 1.7 mph 1.7 mph 87 % 0.00 in 0.0 W/m2 OVC
13:43 38.5 °F 35.0 °F 29.09 in ENE 2.3 mph 2.3 mph 87 % 0.00 in 0.0 W/m2 OVC
13:48 38.5 °F 35.0 °F 29.09 in ENE 1.7 mph 1.7 mph 87 % 0.00 in 0.0 W/m2 OVC
13:53 38.5 °F 35.0 °F 29.09 in NE 2.3 mph 2.3 mph 87 % 0.00 in 0.0 W/m2 OVC
13:58 38.7 °F 35.2 °F 29.09 in Calm     87 % 0.00 in 0.0 W/m2 OVC
14:03 38.5 °F 35.0 °F 29.09 in ENE 2.3 mph 2.3 mph 87 % 0.00 in 0.0 W/m2 OVC
14:08 38.5 °F 35.0 °F 29.09 in NE 1.7 mph 1.7 mph 87 % 0.00 in 0.0 W/m2 OVC
14:13 38.5 °F 35.0 °F 29.09 in East 1.1 mph 1.1 mph 87 % 0.00 in 0.0 W/m2 OVC
14:18 38.3 °F 34.8 °F 29.09 in Calm     87 % 0.00 in 0.0 W/m2 OVC
Lake County Unofficial Weather
Compliments of Weather Underground - 768 kb